createdAt,value
2017-10-06T00:00:10.444Z,10.63
2017-10-06T00:01:10.448Z,10.63
2017-10-06T00:02:10.531Z,10.63
2017-10-06T00:03:10.576Z,10.56
2017-10-06T00:04:11.047Z,10.63
2017-10-06T00:05:10.751Z,10.59
2017-10-06T00:06:10.841Z,10.60
2017-10-06T00:07:10.768Z,10.46
2017-10-06T00:08:10.729Z,10.43
2017-10-06T00:09:11.357Z,10.52
2017-10-06T00:10:11.004Z,10.47
2017-10-06T00:11:11.156Z,10.40
2017-10-06T00:12:10.916Z,10.40
2017-10-06T00:13:10.998Z,10.39
2017-10-06T00:14:11.525Z,10.46
2017-10-06T00:15:11.186Z,10.40
2017-10-06T00:16:11.508Z,10.40
2017-10-06T00:17:11.205Z,10.42
2017-10-06T00:18:11.178Z,10.36
2017-10-06T00:19:11.559Z,10.34
2017-10-06T00:20:11.277Z,10.42
2017-10-06T00:21:11.427Z,10.40
2017-10-06T00:22:11.571Z,10.42
2017-10-06T00:23:11.817Z,10.42
2017-10-06T00:24:11.585Z,10.43
2017-10-06T00:25:11.524Z,10.43
2017-10-06T00:26:11.618Z,10.52
2017-10-06T00:27:12.295Z,10.37
2017-10-06T00:28:11.751Z,10.51
2017-10-06T00:29:11.991Z,10.52
2017-10-06T00:30:11.738Z,10.47
2017-10-06T00:31:12.331Z,10.47
2017-10-06T00:32:11.929Z,10.44
2017-10-06T00:33:11.886Z,10.47
2017-10-06T00:34:12.434Z,10.47
2017-10-06T00:35:12.221Z,10.55
2017-10-06T00:36:12.471Z,10.53
2017-10-06T00:37:12.707Z,10.55
2017-10-06T00:38:12.228Z,10.55
2017-10-06T00:39:12.386Z,10.56
2017-10-06T00:40:12.536Z,10.52
2017-10-06T00:41:12.532Z,10.46
2017-10-06T00:42:12.420Z,10.60
2017-10-06T00:43:12.588Z,10.56
2017-10-06T00:44:12.466Z,10.47
2017-10-06T00:45:12.879Z,10.52
2017-10-06T00:46:12.600Z,10.47
2017-10-06T00:47:12.669Z,10.46
2017-10-06T00:48:12.602Z,10.52
2017-10-06T00:49:12.786Z,10.43
2017-10-06T00:50:13.188Z,10.59
2017-10-06T00:51:13.299Z,10.62
2017-10-06T00:52:12.778Z,10.58
2017-10-06T00:53:13.074Z,10.53
2017-10-06T00:54:12.909Z,10.52
2017-10-06T00:55:13.388Z,10.47
2017-10-06T00:56:13.346Z,10.51
2017-10-06T00:57:13.057Z,10.44
2017-10-06T00:58:13.649Z,10.51
2017-10-06T00:59:13.301Z,10.53
2017-10-06T01:00:13.146Z,10.55
2017-10-06T01:01:13.347Z,10.60
2017-10-06T01:02:13.513Z,10.51
2017-10-06T01:03:13.499Z,10.62
2017-10-06T01:04:13.810Z,10.52
2017-10-06T01:05:13.489Z,10.51
2017-10-06T01:06:13.744Z,10.44
2017-10-06T01:07:13.534Z,10.52
2017-10-06T01:08:13.715Z,10.62
2017-10-06T01:09:13.969Z,10.65
2017-10-06T01:10:13.767Z,10.62
2017-10-06T01:11:13.715Z,10.58
2017-10-06T01:12:13.927Z,10.53
2017-10-06T01:13:14.022Z,10.43
2017-10-06T01:14:13.860Z,10.40
2017-10-06T01:15:13.886Z,10.32
2017-10-06T01:16:13.981Z,10.34
2017-10-06T01:17:14.067Z,10.40
2017-10-06T01:18:14.043Z,10.42
2017-10-06T01:19:14.119Z,10.40
2017-10-06T01:20:14.178Z,10.39
2017-10-06T01:21:14.715Z,10.34
2017-10-06T01:22:14.822Z,10.36
2017-10-06T01:23:14.988Z,10.25
2017-10-06T01:24:14.924Z,10.25
2017-10-06T01:25:14.965Z,10.15
2017-10-06T01:26:14.487Z,10.09
2017-10-06T01:27:15.187Z,10.09
2017-10-06T01:28:14.898Z,10.09
2017-10-06T01:29:14.746Z,10.15
2017-10-06T01:30:15.167Z,10.07
2017-10-06T01:31:14.792Z,10.15
2017-10-06T01:32:15.024Z,10.18
2017-10-06T01:33:14.822Z,10.19
2017-10-06T01:34:15.144Z,10.21
2017-10-06T01:35:14.961Z,10.37
2017-10-06T01:36:15.243Z,10.34
2017-10-06T01:37:15.262Z,10.37
2017-10-06T01:38:15.434Z,10.36
2017-10-06T01:39:15.133Z,10.37
2017-10-06T01:40:15.240Z,10.39
2017-10-06T01:41:15.344Z,10.37
2017-10-06T01:42:15.153Z,10.40
2017-10-06T01:43:15.580Z,10.36
2017-10-06T01:44:15.272Z,10.44
2017-10-06T01:45:15.284Z,10.47
2017-10-06T01:46:15.579Z,10.42
2017-10-06T01:47:15.742Z,10.33
2017-10-06T01:48:16.233Z,10.36
2017-10-06T01:49:15.651Z,10.36
2017-10-06T01:50:15.965Z,10.22
2017-10-06T01:51:15.657Z,10.24
2017-10-06T01:52:15.944Z,10.25
2017-10-06T01:53:15.986Z,10.28
2017-10-06T01:54:15.876Z,10.22
2017-10-06T01:55:15.775Z,10.25
2017-10-06T01:56:16.516Z,10.18
2017-10-06T01:57:16.244Z,10.15
2017-10-06T01:58:16.535Z,10.17
2017-10-06T01:59:16.634Z,10.15
2017-10-06T02:00:16.273Z,10.21
2017-10-06T02:01:16.113Z,10.12
2017-10-06T02:02:16.354Z,10.14
2017-10-06T02:03:16.742Z,10.17
2017-10-06T02:04:16.844Z,10.12
2017-10-06T02:05:16.901Z,10.01
2017-10-06T02:06:16.517Z,9.97
2017-10-06T02:07:16.886Z,10.00
2017-10-06T02:08:17.097Z,9.78
2017-10-06T02:09:17.027Z,9.82
2017-10-06T02:10:17.223Z,9.88
2017-10-06T02:11:16.813Z,9.83
2017-10-06T02:12:17.313Z,9.85
2017-10-06T02:13:17.010Z,9.82
2017-10-06T02:14:17.284Z,9.85
2017-10-06T02:15:17.154Z,9.88
2017-10-06T02:16:17.513Z,9.89
2017-10-06T02:17:17.440Z,9.97
2017-10-06T02:18:17.151Z,9.93
2017-10-06T02:19:17.290Z,9.93
2017-10-06T02:20:17.111Z,9.99
2017-10-06T02:21:17.108Z,10.00
2017-10-06T02:22:17.427Z,10.04
2017-10-06T02:23:17.121Z,10.01
2017-10-06T02:24:17.767Z,10.03
2017-10-06T02:25:17.452Z,9.97
2017-10-06T02:26:17.397Z,9.86
2017-10-06T02:27:17.478Z,9.88
2017-10-06T02:28:17.659Z,9.89
2017-10-06T02:29:17.788Z,9.88
2017-10-06T02:30:17.824Z,9.79
2017-10-06T02:31:17.479Z,9.82
2017-10-06T02:32:17.825Z,9.86
2017-10-06T02:33:17.569Z,9.76
2017-10-06T02:34:17.792Z,9.75
2017-10-06T02:35:17.682Z,9.73
2017-10-06T02:36:17.829Z,9.66
2017-10-06T02:37:18.231Z,9.70
2017-10-06T02:38:18.007Z,9.66
2017-10-06T02:39:18.372Z,9.63
2017-10-06T02:40:17.830Z,9.70
2017-10-06T02:41:18.070Z,9.63
2017-10-06T02:42:18.129Z,9.64
2017-10-06T02:43:18.079Z,9.70
2017-10-06T02:44:18.224Z,9.63
2017-10-06T02:45:18.647Z,9.57
2017-10-06T02:46:18.462Z,9.53
2017-10-06T02:47:18.506Z,9.58
2017-10-06T02:48:18.485Z,9.56
2017-10-06T02:49:18.742Z,9.52
2017-10-06T02:50:18.453Z,9.53
2017-10-06T02:51:18.421Z,9.61
2017-10-06T02:52:18.857Z,9.61
2017-10-06T02:53:18.747Z,9.58
2017-10-06T02:54:18.663Z,9.58
2017-10-06T02:55:18.832Z,9.60
2017-10-06T02:56:18.653Z,9.60
2017-10-06T02:57:18.833Z,9.58
2017-10-06T02:58:18.829Z,9.58
2017-10-06T02:59:19.019Z,9.58
2017-10-06T03:00:18.882Z,9.64
2017-10-06T03:01:19.065Z,9.53
2017-10-06T03:02:18.942Z,9.56
2017-10-06T03:03:18.981Z,9.60
2017-10-06T03:04:19.278Z,9.58
2017-10-06T03:05:19.315Z,9.57
2017-10-06T03:06:19.457Z,9.63
2017-10-06T03:07:19.146Z,9.61
2017-10-06T03:08:19.871Z,9.70
2017-10-06T03:09:19.481Z,9.76
2017-10-06T03:10:19.325Z,9.70
2017-10-06T03:11:19.740Z,9.75
2017-10-06T03:12:19.718Z,9.81
2017-10-06T03:13:19.450Z,9.78
2017-10-06T03:14:19.626Z,9.67
2017-10-06T03:15:19.858Z,9.63
2017-10-06T03:16:19.905Z,9.57
2017-10-06T03:17:19.663Z,9.56
2017-10-06T03:18:19.753Z,9.49
2017-10-06T03:19:19.857Z,9.52
2017-10-06T03:20:19.732Z,9.49
2017-10-06T03:21:19.892Z,9.38
2017-10-06T03:22:20.160Z,9.35
2017-10-06T03:23:19.871Z,9.31
2017-10-06T03:24:19.980Z,9.38
2017-10-06T03:25:20.053Z,9.31
2017-10-06T03:26:20.158Z,9.31
2017-10-06T03:27:20.757Z,9.27
2017-10-06T03:28:20.343Z,9.18
2017-10-06T03:29:20.238Z,9.35
2017-10-06T03:30:20.316Z,9.35
2017-10-06T03:31:20.436Z,9.34
2017-10-06T03:32:20.610Z,9.35
2017-10-06T03:33:20.121Z,9.39
2017-10-06T03:34:20.741Z,9.43
2017-10-06T03:35:20.699Z,9.30
2017-10-06T03:36:21.075Z,9.50
2017-10-06T03:37:20.912Z,9.46
2017-10-06T03:38:20.720Z,9.42
2017-10-06T03:39:21.276Z,9.34
2017-10-06T03:40:21.282Z,9.28
2017-10-06T03:41:21.374Z,9.39
2017-10-06T03:42:21.453Z,9.43
2017-10-06T03:43:21.513Z,9.52
2017-10-06T03:44:21.609Z,9.43
2017-10-06T03:45:21.452Z,9.48
2017-10-06T03:46:21.539Z,9.56
2017-10-06T03:47:21.618Z,9.58
2017-10-06T03:48:21.714Z,9.58
2017-10-06T03:49:21.205Z,9.64
2017-10-06T03:50:21.799Z,9.78
2017-10-06T03:51:21.268Z,9.73
2017-10-06T03:52:21.816Z,9.71
2017-10-06T03:53:21.850Z,9.78
2017-10-06T03:54:22.053Z,9.70
2017-10-06T03:55:21.943Z,9.63
2017-10-06T03:56:22.032Z,9.58
2017-10-06T03:57:22.150Z,9.63
2017-10-06T03:58:22.155Z,9.57
2017-10-06T03:59:21.951Z,9.63
2017-10-06T04:00:21.952Z,9.63
2017-10-06T04:01:21.780Z,9.67
2017-10-06T04:02:21.885Z,9.64
2017-10-06T04:03:22.277Z,9.73
2017-10-06T04:04:22.018Z,9.73
2017-10-06T04:05:21.816Z,9.81
2017-10-06T04:06:22.246Z,9.79
2017-10-06T04:07:21.955Z,9.93
2017-10-06T04:08:22.452Z,9.83
2017-10-06T04:09:22.303Z,9.94
2017-10-06T04:10:22.205Z,9.79
2017-10-06T04:11:22.178Z,9.86
2017-10-06T04:12:22.640Z,9.83
2017-10-06T04:13:22.475Z,9.91
2017-10-06T04:14:23.021Z,9.82
2017-10-06T04:15:22.452Z,9.83
2017-10-06T04:16:23.116Z,9.83
2017-10-06T04:17:22.940Z,9.93
2017-10-06T04:18:23.019Z,9.86
2017-10-06T04:19:23.068Z,9.83
2017-10-06T04:20:22.715Z,9.78
2017-10-06T04:21:23.153Z,9.85
2017-10-06T04:22:23.161Z,9.88
2017-10-06T04:23:23.212Z,9.88
2017-10-06T04:24:23.331Z,9.83
2017-10-06T04:25:23.418Z,9.89
2017-10-06T04:26:23.014Z,9.89
2017-10-06T04:27:23.540Z,9.96
2017-10-06T04:28:23.568Z,9.82
2017-10-06T04:29:23.819Z,9.79
2017-10-06T04:30:23.147Z,9.82
2017-10-06T04:31:23.123Z,9.73
2017-10-06T04:32:23.066Z,9.81
2017-10-06T04:33:23.276Z,9.70
2017-10-06T04:34:23.492Z,9.79
2017-10-06T04:35:23.436Z,9.75
2017-10-06T04:36:23.605Z,9.76
2017-10-06T04:37:23.543Z,9.76
2017-10-06T04:38:23.384Z,9.79
2017-10-06T04:39:23.938Z,9.78
2017-10-06T04:40:23.791Z,9.75
2017-10-06T04:41:23.557Z,9.82
2017-10-06T04:42:23.678Z,9.85
2017-10-06T04:43:23.590Z,9.75
2017-10-06T04:44:24.034Z,9.71
2017-10-06T04:45:23.770Z,9.60
2017-10-06T04:46:23.711Z,9.53
2017-10-06T04:47:24.028Z,9.58
2017-10-06T04:48:23.838Z,9.53
2017-10-06T04:49:24.389Z,9.56
2017-10-06T04:50:24.136Z,9.63
2017-10-06T04:51:24.336Z,9.60
2017-10-06T04:52:24.429Z,9.60
2017-10-06T04:53:24.355Z,9.68
2017-10-06T04:54:24.215Z,9.66
2017-10-06T04:55:24.170Z,9.57
2017-10-06T04:56:24.350Z,9.60
2017-10-06T04:57:24.264Z,9.56
2017-10-06T04:58:24.929Z,9.58
2017-10-06T04:59:25.298Z,9.49
2017-10-06T05:00:24.669Z,9.42
2017-10-06T05:01:25.175Z,9.57
2017-10-06T05:02:24.484Z,9.63
2017-10-06T05:03:24.584Z,9.61
2017-10-06T05:04:24.618Z,9.60
2017-10-06T05:05:25.054Z,9.60
2017-10-06T05:06:25.069Z,9.66
2017-10-06T05:07:24.948Z,9.71
2017-10-06T05:08:25.127Z,9.71
2017-10-06T05:09:24.774Z,9.73
2017-10-06T05:10:25.489Z,9.71
2017-10-06T05:11:25.129Z,9.78
2017-10-06T05:12:25.134Z,9.85
2017-10-06T05:13:25.518Z,9.78
2017-10-06T05:14:25.696Z,9.82
2017-10-06T05:15:25.104Z,9.86
2017-10-06T05:16:25.425Z,9.79
2017-10-06T05:17:25.253Z,9.94
2017-10-06T05:18:25.435Z,9.83
2017-10-06T05:19:25.858Z,9.83
2017-10-06T05:20:25.290Z,9.93
2017-10-06T05:21:25.258Z,9.85
2017-10-06T05:22:25.618Z,9.81
2017-10-06T05:23:25.460Z,9.88
2017-10-06T05:24:25.885Z,9.86
2017-10-06T05:25:26.038Z,9.86
2017-10-06T05:26:26.082Z,9.86
2017-10-06T05:27:25.654Z,9.83
2017-10-06T05:28:25.929Z,9.88
2017-10-06T05:29:25.967Z,9.82
2017-10-06T05:30:25.770Z,9.81
2017-10-06T05:31:26.024Z,9.85
2017-10-06T05:32:26.102Z,9.85
2017-10-06T05:33:25.717Z,9.83
2017-10-06T05:34:25.759Z,9.79
2017-10-06T05:35:26.629Z,9.86
2017-10-06T05:36:27.203Z,9.86
2017-10-06T05:37:26.844Z,9.89
2017-10-06T05:38:26.841Z,9.88
2017-10-06T05:39:26.920Z,9.82
2017-10-06T05:40:27.003Z,9.86
2017-10-06T05:41:26.891Z,9.89
2017-10-06T05:42:27.189Z,9.89
2017-10-06T05:43:27.039Z,9.83
2017-10-06T05:44:27.102Z,9.93
2017-10-06T05:45:26.849Z,9.85
2017-10-06T05:46:27.127Z,9.83
2017-10-06T05:47:27.290Z,9.82
2017-10-06T05:48:26.936Z,9.86
2017-10-06T05:49:27.553Z,9.82
2017-10-06T05:50:27.419Z,9.82
2017-10-06T05:51:27.381Z,9.75
2017-10-06T05:52:27.623Z,9.73
2017-10-06T05:53:27.583Z,9.81
2017-10-06T05:54:26.954Z,9.78
2017-10-06T05:55:27.623Z,9.79
2017-10-06T05:56:27.638Z,9.81
2017-10-06T05:57:27.743Z,9.82
2017-10-06T05:58:27.666Z,9.78
2017-10-06T05:59:27.553Z,9.75
2017-10-06T06:00:27.510Z,9.73
2017-10-06T06:01:29.737Z,9.68
2017-10-06T06:02:28.009Z,9.76
2017-10-06T06:03:28.064Z,9.71
2017-10-06T06:04:27.541Z,9.70
2017-10-06T06:05:27.768Z,9.71
2017-10-06T06:06:27.951Z,9.71
2017-10-06T06:07:28.009Z,9.76
2017-10-06T06:08:28.405Z,9.75
2017-10-06T06:09:28.166Z,9.75
2017-10-06T06:10:28.289Z,9.76
2017-10-06T06:11:28.436Z,9.75
2017-10-06T06:12:28.316Z,9.76
2017-10-06T06:13:28.440Z,9.85
2017-10-06T06:14:28.442Z,9.89
2017-10-06T06:15:28.498Z,9.85
2017-10-06T06:16:28.702Z,9.91
2017-10-06T06:17:28.584Z,9.91
2017-10-06T06:18:28.663Z,9.78
2017-10-06T06:19:28.238Z,9.85
2017-10-06T06:20:29.363Z,9.85
2017-10-06T06:21:28.879Z,9.82
2017-10-06T06:22:28.791Z,9.91
2017-10-06T06:23:29.029Z,9.94
2017-10-06T06:24:28.845Z,9.97
2017-10-06T06:25:29.124Z,10.03
2017-10-06T06:26:28.629Z,9.93
2017-10-06T06:27:29.385Z,9.96
2017-10-06T06:28:29.177Z,9.94
2017-10-06T06:29:29.291Z,9.99
2017-10-06T06:30:29.145Z,9.97
2017-10-06T06:31:29.489Z,9.93
2017-10-06T06:32:29.406Z,10.06
2017-10-06T06:33:29.495Z,9.96
2017-10-06T06:34:29.309Z,10.00
2017-10-06T06:35:29.432Z,10.07
2017-10-06T06:36:29.054Z,9.99
2017-10-06T06:37:29.311Z,10.01
2017-10-06T06:38:29.342Z,10.00
2017-10-06T06:39:29.570Z,10.01
2017-10-06T06:40:29.756Z,10.17
2017-10-06T06:41:29.775Z,10.10
2017-10-06T06:42:29.759Z,10.04
2017-10-06T06:43:29.527Z,10.12
2017-10-06T06:44:29.868Z,10.06
2017-10-06T06:45:30.035Z,10.15
2017-10-06T06:46:30.068Z,10.01
2017-10-06T06:47:29.746Z,10.14
2017-10-06T06:48:30.158Z,10.15
2017-10-06T06:49:30.390Z,10.40
2017-10-06T06:50:30.216Z,10.51
2017-10-06T06:51:30.232Z,10.55
2017-10-06T06:52:30.151Z,10.59
2017-10-06T06:53:29.928Z,10.56
2017-10-06T06:54:30.449Z,10.63
2017-10-06T06:55:30.312Z,10.68
2017-10-06T06:56:30.005Z,10.66
2017-10-06T06:57:30.167Z,10.74
2017-10-06T06:58:30.585Z,10.83
2017-10-06T06:59:30.545Z,10.71
2017-10-06T07:00:30.659Z,10.68
2017-10-06T07:01:30.818Z,10.63
2017-10-06T07:02:30.260Z,10.62
2017-10-06T07:03:30.170Z,10.63
2017-10-06T07:04:31.045Z,10.62
2017-10-06T07:05:30.236Z,10.51
2017-10-06T07:06:30.808Z,10.43
2017-10-06T07:07:30.769Z,10.37
2017-10-06T07:08:30.522Z,10.43
2017-10-06T07:09:30.460Z,10.36
2017-10-06T07:10:31.124Z,10.25
2017-10-06T07:11:31.290Z,10.28
2017-10-06T07:12:31.324Z,10.28
2017-10-06T07:13:30.996Z,10.15
2017-10-06T07:14:30.813Z,10.21
2017-10-06T07:15:30.836Z,10.22
2017-10-06T07:16:31.370Z,10.24
2017-10-06T07:17:31.043Z,10.30
2017-10-06T07:18:31.659Z,10.25
2017-10-06T07:19:31.074Z,10.32
2017-10-06T07:20:31.017Z,10.34
2017-10-06T07:21:31.535Z,10.33
2017-10-06T07:22:31.645Z,10.25
2017-10-06T07:23:31.440Z,11.06
2017-10-06T07:24:31.378Z,12.37
2017-10-06T07:25:31.149Z,13.77
2017-10-06T07:26:31.413Z,14.88
2017-10-06T07:27:31.515Z,15.35
2017-10-06T07:28:32.078Z,16.25
2017-10-06T07:29:31.738Z,16.48
2017-10-06T07:30:32.056Z,15.86
2017-10-06T07:31:31.546Z,16.52
2017-10-06T07:32:31.656Z,17.14
2017-10-06T07:33:31.984Z,16.92
2017-10-06T07:34:32.236Z,17.00
2017-10-06T07:35:31.711Z,17.47
2017-10-06T07:36:32.232Z,17.71
2017-10-06T07:37:31.922Z,17.26
2017-10-06T07:38:31.784Z,17.46
2017-10-06T07:39:32.266Z,17.30
2017-10-06T07:40:31.940Z,17.23
2017-10-06T07:41:32.033Z,17.89
2017-10-06T07:42:32.544Z,18.06
2017-10-06T07:43:32.232Z,18.22
2017-10-06T07:44:32.248Z,18.54
2017-10-06T07:45:32.852Z,18.64
2017-10-06T07:46:32.914Z,18.84
2017-10-06T07:47:32.808Z,18.64
2017-10-06T07:48:33.144Z,18.31
2017-10-06T07:49:32.391Z,18.82
2017-10-06T07:50:32.345Z,18.44
2017-10-06T07:51:32.593Z,18.43
2017-10-06T07:52:32.576Z,18.65
2017-10-06T07:53:32.999Z,18.70
2017-10-06T07:54:32.656Z,17.97
2017-10-06T07:55:33.122Z,18.27
2017-10-06T07:56:33.158Z,18.17
2017-10-06T07:57:32.799Z,18.12
2017-10-06T07:58:33.460Z,17.99
2017-10-06T07:59:33.414Z,18.37
2017-10-06T08:00:33.058Z,18.72
2017-10-06T08:01:33.582Z,18.99
2017-10-06T08:02:33.707Z,19.14
2017-10-06T08:03:33.685Z,18.83
2017-10-06T08:04:33.468Z,18.02
2017-10-06T08:05:33.530Z,18.02
2017-10-06T08:06:33.271Z,18.55
2017-10-06T08:07:33.236Z,18.70
2017-10-06T08:08:33.465Z,18.31
2017-10-06T08:09:33.362Z,18.17
2017-10-06T08:10:33.382Z,17.91
2017-10-06T08:11:33.568Z,18.34
2017-10-06T08:12:33.749Z,18.55
2017-10-06T08:13:33.710Z,18.37
2017-10-06T08:14:33.913Z,17.50
2017-10-06T08:15:33.634Z,17.89
2017-10-06T08:16:33.765Z,18.13
2017-10-06T08:17:33.831Z,18.49
2017-10-06T08:18:34.108Z,18.04
2017-10-06T08:19:34.485Z,18.39
2017-10-06T08:20:33.889Z,18.70
2017-10-06T08:21:34.123Z,18.95
2017-10-06T08:22:34.030Z,18.95
2017-10-06T08:23:34.291Z,19.31
2017-10-06T08:24:34.371Z,19.60
2017-10-06T08:25:34.452Z,19.54
2017-10-06T08:26:34.335Z,19.60
2017-10-06T08:27:34.709Z,19.40
2017-10-06T08:28:34.383Z,19.24
2017-10-06T08:29:34.684Z,19.10
2017-10-06T08:30:34.561Z,19.32
2017-10-06T08:31:34.736Z,19.47
2017-10-06T08:32:34.623Z,19.80
2017-10-06T08:33:35.049Z,20.00
2017-10-06T08:34:35.328Z,19.86
2017-10-06T08:35:35.227Z,20.00
2017-10-06T08:36:34.839Z,20.06
2017-10-06T08:37:34.872Z,19.63
2017-10-06T08:38:34.956Z,19.05
2017-10-06T08:39:35.035Z,18.49
2017-10-06T08:40:35.607Z,17.55
2017-10-06T08:41:35.004Z,17.15
2017-10-06T08:42:35.196Z,16.68
2017-10-06T08:43:35.597Z,16.45
2017-10-06T08:44:35.151Z,16.15
2017-10-06T08:45:35.502Z,15.96
2017-10-06T08:46:35.650Z,15.75
2017-10-06T08:47:35.922Z,15.78
2017-10-06T08:48:35.384Z,15.70
2017-10-06T08:49:35.830Z,15.57
2017-10-06T08:50:35.873Z,15.38
2017-10-06T08:51:35.674Z,15.21
2017-10-06T08:52:36.260Z,15.08
2017-10-06T08:53:35.895Z,15.09
2017-10-06T08:54:36.072Z,14.95
2017-10-06T08:55:36.041Z,15.06
2017-10-06T08:56:36.101Z,15.06
2017-10-06T08:57:36.074Z,15.01
2017-10-06T08:58:36.078Z,15.15
2017-10-06T08:59:35.952Z,15.27
2017-10-06T09:00:36.805Z,15.54
2017-10-06T09:01:36.335Z,15.81
2017-10-06T09:02:36.164Z,15.56
2017-10-06T09:03:36.107Z,15.56
2017-10-06T09:04:36.220Z,15.51
2017-10-06T09:05:36.387Z,15.57
2017-10-06T09:06:36.539Z,15.15
2017-10-06T09:07:36.300Z,15.13
2017-10-06T09:08:36.629Z,15.11
2017-10-06T09:09:37.280Z,15.05
2017-10-06T09:10:36.585Z,15.06
2017-10-06T09:11:36.839Z,14.98
2017-10-06T09:12:36.715Z,15.09
2017-10-06T09:13:36.749Z,14.93
2017-10-06T09:14:36.692Z,14.87
2017-10-06T09:15:36.966Z,14.68
2017-10-06T09:16:37.243Z,14.61
2017-10-06T09:17:37.158Z,14.61
2017-10-06T09:18:37.258Z,14.52
2017-10-06T09:19:37.010Z,14.46
2017-10-06T09:20:37.423Z,14.42
2017-10-06T09:21:37.263Z,14.28
2017-10-06T09:22:37.158Z,14.19
2017-10-06T09:23:37.133Z,14.10
2017-10-06T09:24:37.302Z,13.80
2017-10-06T09:25:37.779Z,13.69
2017-10-06T09:26:37.454Z,13.74
2017-10-06T09:27:37.358Z,13.63
2017-10-06T09:28:37.776Z,13.63
2017-10-06T09:29:38.023Z,13.56
2017-10-06T09:30:37.850Z,13.47
2017-10-06T09:31:37.889Z,13.41
2017-10-06T09:32:38.198Z,13.43
2017-10-06T09:33:37.600Z,13.33
2017-10-06T09:34:38.399Z,13.33
2017-10-06T09:35:37.792Z,13.21
2017-10-06T09:36:38.308Z,13.18
2017-10-06T09:37:38.179Z,13.18
2017-10-06T09:38:38.197Z,13.18
2017-10-06T09:39:37.976Z,13.04
2017-10-06T09:40:38.627Z,13.00
2017-10-06T09:41:38.518Z,12.97
2017-10-06T09:42:38.601Z,12.82
2017-10-06T09:43:38.809Z,12.84
2017-10-06T09:44:38.953Z,12.81
2017-10-06T09:45:38.988Z,12.70
2017-10-06T09:46:38.385Z,12.74
2017-10-06T09:47:38.411Z,12.79
2017-10-06T09:48:38.425Z,12.74
2017-10-06T09:49:38.498Z,12.66
2017-10-06T09:50:39.045Z,12.60
2017-10-06T09:51:38.632Z,12.51
2017-10-06T09:52:39.063Z,12.51
2017-10-06T09:53:38.611Z,12.34
2017-10-06T09:54:38.653Z,12.42
2017-10-06T09:55:38.726Z,12.33
2017-10-06T09:56:39.305Z,12.24
2017-10-06T09:57:39.210Z,12.31
2017-10-06T09:58:39.462Z,12.24
2017-10-06T09:59:38.949Z,12.31
2017-10-06T10:00:39.624Z,12.37
2017-10-06T10:01:39.596Z,12.39
2017-10-06T10:02:39.437Z,12.34
2017-10-06T10:03:39.793Z,12.42
2017-10-06T10:04:39.307Z,12.44
2017-10-06T10:05:39.425Z,12.49
2017-10-06T10:06:39.291Z,12.48
2017-10-06T10:07:39.347Z,12.45
2017-10-06T10:08:39.470Z,12.48
2017-10-06T10:09:39.456Z,12.42
2017-10-06T10:10:39.545Z,12.57
2017-10-06T10:11:40.170Z,12.51
2017-10-06T10:12:40.025Z,12.51
2017-10-06T10:13:39.977Z,12.37
2017-10-06T10:14:39.780Z,12.37
2017-10-06T10:15:40.070Z,12.39
2017-10-06T10:16:40.483Z,12.49
2017-10-06T10:17:39.745Z,12.45
2017-10-06T10:18:40.469Z,12.51
2017-10-06T10:19:40.386Z,12.45
2017-10-06T10:20:40.793Z,12.57
2017-10-06T10:21:40.705Z,12.66
2017-10-06T10:22:40.701Z,12.59
2017-10-06T10:23:40.724Z,12.59
2017-10-06T10:24:40.138Z,12.59
2017-10-06T10:25:40.586Z,12.56
2017-10-06T10:26:40.533Z,12.52
2017-10-06T10:27:40.429Z,12.57
2017-10-06T10:28:40.960Z,12.62
2017-10-06T10:29:40.845Z,12.51
2017-10-06T10:30:40.940Z,12.57
2017-10-06T10:31:40.938Z,12.54
2017-10-06T10:32:40.522Z,12.52
2017-10-06T10:33:41.074Z,12.64
2017-10-06T10:34:40.387Z,12.63
2017-10-06T10:35:41.284Z,12.64
2017-10-06T10:36:41.362Z,12.75
2017-10-06T10:37:41.205Z,12.81
2017-10-06T10:38:41.366Z,12.79
2017-10-06T10:39:41.533Z,12.69
2017-10-06T10:40:41.544Z,12.70
2017-10-06T10:41:41.630Z,12.66
2017-10-06T10:42:41.695Z,12.69
2017-10-06T10:43:41.692Z,12.54
2017-10-06T10:44:42.236Z,12.59
2017-10-06T10:45:42.626Z,12.54
2017-10-06T10:46:41.874Z,12.48
2017-10-06T10:47:41.916Z,12.44
2017-10-06T10:48:41.851Z,12.41
2017-10-06T10:49:41.898Z,12.51
2017-10-06T10:50:42.003Z,12.48
2017-10-06T10:51:42.024Z,12.56
2017-10-06T10:52:42.016Z,12.48
2017-10-06T10:53:41.536Z,12.70
2017-10-06T10:54:41.816Z,12.54
2017-10-06T10:55:42.078Z,12.60
2017-10-06T10:56:41.824Z,12.51
2017-10-06T10:57:42.303Z,12.44
2017-10-06T10:58:41.981Z,12.44
2017-10-06T10:59:42.060Z,12.49
2017-10-06T11:00:42.141Z,12.49
2017-10-06T11:01:42.246Z,12.49
2017-10-06T11:02:42.167Z,12.48
2017-10-06T11:03:42.220Z,12.41
2017-10-06T11:04:42.704Z,12.42
2017-10-06T11:05:42.713Z,12.26
2017-10-06T11:06:42.344Z,12.24
2017-10-06T11:07:42.330Z,12.06
2017-10-06T11:08:42.621Z,11.99
2017-10-06T11:09:42.593Z,11.94
2017-10-06T11:10:43.040Z,11.78
2017-10-06T11:11:42.620Z,11.71
2017-10-06T11:12:42.484Z,11.59
2017-10-06T11:13:42.907Z,11.52
2017-10-06T11:14:42.732Z,11.49
2017-10-06T11:15:43.162Z,11.61
2017-10-06T11:16:42.959Z,11.53
2017-10-06T11:17:42.742Z,11.59
2017-10-06T11:18:42.743Z,11.68
2017-10-06T11:19:43.222Z,11.71
2017-10-06T11:20:43.102Z,11.75
2017-10-06T11:21:43.027Z,11.72
2017-10-06T11:22:43.028Z,11.94
2017-10-06T11:23:43.051Z,11.89
2017-10-06T11:24:43.564Z,11.90
2017-10-06T11:25:43.512Z,11.96
2017-10-06T11:26:43.082Z,11.90
2017-10-06T11:27:43.361Z,11.94
2017-10-06T11:28:43.210Z,12.04
2017-10-06T11:29:43.254Z,11.97
2017-10-06T11:30:43.616Z,12.01
2017-10-06T11:31:43.570Z,12.01
2017-10-06T11:32:43.526Z,11.97
2017-10-06T11:33:43.504Z,12.05
2017-10-06T11:34:43.479Z,12.15
2017-10-06T11:35:43.574Z,12.26
2017-10-06T11:36:43.660Z,12.37
2017-10-06T11:37:43.678Z,12.39
2017-10-06T11:38:43.788Z,12.41
2017-10-06T11:39:43.805Z,12.45
2017-10-06T11:40:44.149Z,12.54
2017-10-06T11:41:43.890Z,12.56
2017-10-06T11:42:43.927Z,12.69
2017-10-06T11:43:44.504Z,12.74
2017-10-06T11:44:43.967Z,12.78
2017-10-06T11:45:44.648Z,12.99
2017-10-06T11:46:44.276Z,13.02
2017-10-06T11:47:44.110Z,13.07
2017-10-06T11:48:44.341Z,13.07
2017-10-06T11:49:44.769Z,13.21
2017-10-06T11:50:44.266Z,13.24
2017-10-06T11:51:44.562Z,13.33
2017-10-06T11:52:44.463Z,13.21
2017-10-06T11:53:45.185Z,13.21
2017-10-06T11:54:44.853Z,13.18
2017-10-06T11:55:44.818Z,13.27
2017-10-06T11:56:44.655Z,13.20
2017-10-06T11:57:44.614Z,13.25
2017-10-06T11:58:45.281Z,13.18
2017-10-06T11:59:44.769Z,13.25
2017-10-06T12:00:45.030Z,13.21
2017-10-06T12:01:45.180Z,13.43
2017-10-06T12:02:45.012Z,13.41
2017-10-06T12:03:45.122Z,13.43
2017-10-06T12:04:45.275Z,13.54
2017-10-06T12:05:45.091Z,13.56
2017-10-06T12:06:45.211Z,13.51
2017-10-06T12:07:45.627Z,13.58
2017-10-06T12:08:45.290Z,13.49
2017-10-06T12:09:45.762Z,13.46
2017-10-06T12:10:45.756Z,13.43
2017-10-06T12:11:45.437Z,13.44
2017-10-06T12:12:45.651Z,13.17
2017-10-06T12:13:45.891Z,13.06
2017-10-06T12:14:45.517Z,13.17
2017-10-06T12:15:45.713Z,12.96
2017-10-06T12:16:45.673Z,13.04
2017-10-06T12:17:45.802Z,13.03
2017-10-06T12:18:45.862Z,12.96
2017-10-06T12:19:45.871Z,12.89
2017-10-06T12:20:46.148Z,12.93
2017-10-06T12:21:45.888Z,12.92
2017-10-06T12:22:46.165Z,12.93
2017-10-06T12:23:46.077Z,12.97
2017-10-06T12:24:45.972Z,12.95
2017-10-06T12:25:46.101Z,13.00
2017-10-06T12:26:46.721Z,13.02
2017-10-06T12:27:46.701Z,12.96
2017-10-06T12:28:47.143Z,12.89
2017-10-06T12:29:46.476Z,13.03
2017-10-06T12:30:46.183Z,12.89
2017-10-06T12:31:46.288Z,12.97
2017-10-06T12:32:46.430Z,13.04
2017-10-06T12:33:46.504Z,13.06
2017-10-06T12:34:46.529Z,13.11
2017-10-06T12:35:46.775Z,13.20
2017-10-06T12:36:46.943Z,13.15
2017-10-06T12:37:46.847Z,13.18
2017-10-06T12:38:47.185Z,13.17
2017-10-06T12:39:47.068Z,13.04
2017-10-06T12:40:46.833Z,13.02
2017-10-06T12:41:46.888Z,13.07
2017-10-06T12:42:47.112Z,13.03
2017-10-06T12:43:47.047Z,13.11
2017-10-06T12:44:47.002Z,13.09
2017-10-06T12:45:47.306Z,13.06
2017-10-06T12:46:47.647Z,13.15
2017-10-06T12:47:47.659Z,13.03
2017-10-06T12:48:47.864Z,12.99
2017-10-06T12:49:47.616Z,13.02
2017-10-06T12:50:47.824Z,12.99
2017-10-06T12:51:47.269Z,12.96
2017-10-06T12:52:47.433Z,12.88
2017-10-06T12:53:47.456Z,12.89
2017-10-06T12:54:47.860Z,12.75
2017-10-06T12:55:47.663Z,12.70
2017-10-06T12:56:47.577Z,12.63
2017-10-06T12:57:47.799Z,12.39
2017-10-06T12:58:47.612Z,12.41
2017-10-06T12:59:47.929Z,12.37
2017-10-06T13:00:47.918Z,12.27
2017-10-06T13:01:47.871Z,12.24